RYR31KM LEBL-LEPA
Flight info
| Callsign | RYR31KM |
|---|---|
| Flight time | 0h 27m |
| Altitude | 19000 |
| Route | LARPA N859 TOLSO |
| Aircraft | A320/M-SDE3FGHIRWY/LB1 |
Departure
| Time | 2026-05-07 22:23 |
|---|---|
| Airport | Josep Tarradellas Barcelona-El Prat Airport (LEBL) |
Arrival
| Time | 2026-05-07 22:51 |
|---|---|
| Airport | Palma de Mallorca Airport (LEPA) |
| Time | Latitude | Longitude | Altitude | Speed | Heading |
|---|---|---|---|---|---|
| 2026-05-07 21:52 | 41.30314 | 2.08241 | 22 ft | 0 kts | 13° |
| 2026-05-07 22:08 | 41.30303 | 2.08237 | 23 ft | 2 kts | 360° |
| 2026-05-07 22:08 | 41.30286 | 2.08238 | 23 ft | 2 kts | 348° |
| 2026-05-07 22:08 | 41.30270 | 2.08244 | 22 ft | 2 kts | 327° |
| 2026-05-07 22:08 | 41.30257 | 2.08258 | 22 ft | 2 kts | 303° |
| 2026-05-07 22:09 | 41.30250 | 2.08277 | 21 ft | 2 kts | 281° |
| 2026-05-07 22:09 | 41.30249 | 2.08299 | 24 ft | 2 kts | 247° |
| 2026-05-07 22:09 | 41.30254 | 2.08316 | 23 ft | 1 kts | 246° |
| 2026-05-07 22:12 | 41.30253 | 2.08311 | 22 ft | 3 kts | 245° |
| 2026-05-07 22:13 | 41.30233 | 2.08254 | 21 ft | 10 kts | 245° |
| 2026-05-07 22:13 | 41.30194 | 2.08138 | 22 ft | 17 kts | 245° |
| 2026-05-07 22:13 | 41.30134 | 2.07963 | 22 ft | 23 kts | 245° |
| 2026-05-07 22:13 | 41.30064 | 2.07758 | 23 ft | 25 kts | 245° |
| 2026-05-07 22:14 | 41.29987 | 2.07537 | 21 ft | 27 kts | 245° |
| 2026-05-07 22:14 | 41.29907 | 2.07301 | 21 ft | 21 kts | 245° |
| 2026-05-07 22:14 | 41.29853 | 2.07176 | 22 ft | 9 kts | 204° |
| 2026-05-07 22:14 | 41.29794 | 2.07149 | 23 ft | 10 kts | 232° |
| 2026-05-07 22:15 | 41.29758 | 2.07044 | 21 ft | 16 kts | 245° |
| 2026-05-07 22:15 | 41.29724 | 2.06943 | 21 ft | 20 kts | 245° |
| 2026-05-07 22:15 | 41.29656 | 2.06745 | 22 ft | 27 kts | 245° |
| 2026-05-07 22:15 | 41.29573 | 2.06502 | 23 ft | 30 kts | 246° |
| 2026-05-07 22:16 | 41.29490 | 2.06261 | 22 ft | 25 kts | 246° |
| 2026-05-07 22:16 | 41.29424 | 2.06133 | 21 ft | 12 kts | 191° |
| 2026-05-07 22:16 | 41.29322 | 2.06137 | 22 ft | 18 kts | 166° |
| 2026-05-07 22:16 | 41.29192 | 2.06213 | 22 ft | 23 kts | 159° |
| 2026-05-07 22:17 | 41.29054 | 2.06324 | 21 ft | 23 kts | 118° |
| 2026-05-07 22:17 | 41.29004 | 2.06529 | 21 ft | 23 kts | 85° |
| 2026-05-07 22:17 | 41.29067 | 2.06736 | 22 ft | 26 kts | 65° |
| 2026-05-07 22:17 | 41.29146 | 2.06968 | 21 ft | 29 kts | 65° |
| 2026-05-07 22:18 | 41.29234 | 2.07221 | 24 ft | 30 kts | 65° |
| 2026-05-07 22:18 | 41.29405 | 2.07748 | 21 ft | 32 kts | 65° |
| 2026-05-07 22:18 | 41.29488 | 2.07989 | 21 ft | 28 kts | 65° |
| 2026-05-07 22:19 | 41.29561 | 2.08201 | 22 ft | 19 kts | 65° |
| 2026-05-07 22:19 | 41.29532 | 2.08280 | 21 ft | 11 kts | 155° |
| 2026-05-07 22:19 | 41.29452 | 2.08328 | 21 ft | 15 kts | 156° |
| 2026-05-07 22:19 | 41.29344 | 2.08394 | 23 ft | 20 kts | 155° |
| 2026-05-07 22:20 | 41.29205 | 2.08446 | 21 ft | 22 kts | 192° |
| 2026-05-07 22:20 | 41.29044 | 2.08377 | 23 ft | 26 kts | 199° |
| 2026-05-07 22:20 | 41.28864 | 2.08294 | 23 ft | 28 kts | 199° |
| 2026-05-07 22:20 | 41.28692 | 2.08211 | 23 ft | 18 kts | 213° |
| 2026-05-07 22:21 | 41.28628 | 2.08051 | 21 ft | 22 kts | 245° |
| 2026-05-07 22:21 | 41.28559 | 2.07850 | 21 ft | 26 kts | 246° |
| 2026-05-07 22:21 | 41.28483 | 2.07626 | 21 ft | 27 kts | 245° |
| 2026-05-07 22:21 | 41.28405 | 2.07399 | 21 ft | 24 kts | 244° |
| 2026-05-07 22:22 | 41.28310 | 2.07339 | 21 ft | 15 kts | 161° |
| 2026-05-07 22:22 | 41.28233 | 2.07402 | 20 ft | 9 kts | 112° |
| 2026-05-07 22:22 | 41.28243 | 2.07476 | 21 ft | 8 kts | 66° |
| 2026-05-07 22:22 | 41.28282 | 2.07594 | 20 ft | 36 kts | 66° |
| 2026-05-07 22:23 | 41.28500 | 2.08220 | 21 ft | 109 kts | 65° |
| 2026-05-07 22:23 | 41.28899 | 2.09378 | 27 ft | 164 kts | 64° |
| 2026-05-07 22:23 | 41.29347 | 2.10735 | 702 ft | 159 kts | 73° |
| 2026-05-07 22:23 | 41.29395 | 2.12221 | 1379 ft | 168 kts | 96° |
| 2026-05-07 22:24 | 41.29241 | 2.13859 | 1849 ft | 189 kts | 97° |
| 2026-05-07 22:24 | 41.29043 | 2.15661 | 2371 ft | 205 kts | 99° |
| 2026-05-07 22:24 | 41.28802 | 2.17583 | 2947 ft | 216 kts | 100° |
| 2026-05-07 22:24 | 41.28577 | 2.19555 | 3845 ft | 215 kts | 98° |
| 2026-05-07 22:25 | 41.28386 | 2.21535 | 4718 ft | 217 kts | 97° |
| 2026-05-07 22:25 | 41.28206 | 2.23539 | 5537 ft | 220 kts | 97° |
| 2026-05-07 22:25 | 41.27866 | 2.25586 | 6091 ft | 239 kts | 116° |
| 2026-05-07 22:25 | 41.26715 | 2.27289 | 6501 ft | 263 kts | 150° |
| 2026-05-07 22:26 | 41.24915 | 2.27926 | 7169 ft | 275 kts | 174° |
| 2026-05-07 22:26 | 41.22988 | 2.28150 | 8050 ft | 280 kts | 175° |
| 2026-05-07 22:26 | 41.21033 | 2.28357 | 8959 ft | 284 kts | 175° |
| 2026-05-07 22:26 | 41.19046 | 2.28569 | 9865 ft | 288 kts | 175° |
| 2026-05-07 22:27 | 41.17009 | 2.28789 | 10454 ft | 303 kts | 175° |
| 2026-05-07 22:27 | 41.14826 | 2.29026 | 10753 ft | 327 kts | 175° |
| 2026-05-07 22:27 | 41.12479 | 2.29285 | 10997 ft | 351 kts | 175° |
| 2026-05-07 22:27 | 41.09977 | 2.29565 | 11330 ft | 368 kts | 175° |
| 2026-05-07 22:28 | 41.07399 | 2.29855 | 11978 ft | 375 kts | 175° |
| 2026-05-07 22:28 | 41.04765 | 2.30153 | 12558 ft | 384 kts | 175° |
| 2026-05-07 22:28 | 41.02090 | 2.30457 | 13239 ft | 389 kts | 175° |
| 2026-05-07 22:28 | 40.99376 | 2.30761 | 13927 ft | 393 kts | 175° |
| 2026-05-07 22:29 | 40.96645 | 2.31068 | 14568 ft | 396 kts | 176° |
| 2026-05-07 22:29 | 40.93886 | 2.31375 | 15229 ft | 399 kts | 176° |
| 2026-05-07 22:29 | 40.91108 | 2.31685 | 15886 ft | 402 kts | 176° |
| 2026-05-07 22:29 | 40.88311 | 2.31999 | 16538 ft | 405 kts | 176° |
| 2026-05-07 22:30 | 40.85496 | 2.32317 | 17172 ft | 408 kts | 176° |
| 2026-05-07 22:30 | 40.82656 | 2.32642 | 17783 ft | 411 kts | 176° |
| 2026-05-07 22:30 | 40.79791 | 2.32966 | 18373 ft | 415 kts | 177° |
| 2026-05-07 22:30 | 40.76904 | 2.33286 | 18829 ft | 417 kts | 177° |
| 2026-05-07 22:31 | 40.73973 | 2.33609 | 18976 ft | 417 kts | 177° |
| 2026-05-07 22:31 | 40.71091 | 2.33880 | 19009 ft | 416 kts | 179° |
| 2026-05-07 22:31 | 40.68236 | 2.34058 | 19013 ft | 416 kts | 180° |
| 2026-05-07 22:31 | 40.65306 | 2.34183 | 19012 ft | 415 kts | 180° |
| 2026-05-07 22:32 | 40.62456 | 2.34284 | 19013 ft | 415 kts | 180° |
| 2026-05-07 22:32 | 40.59534 | 2.34393 | 19008 ft | 416 kts | 180° |
| 2026-05-07 22:32 | 40.56678 | 2.34513 | 19010 ft | 416 kts | 180° |
| 2026-05-07 22:32 | 40.53751 | 2.34647 | 19010 ft | 416 kts | 180° |
| 2026-05-07 22:33 | 40.50895 | 2.34788 | 19009 ft | 416 kts | 180° |
| 2026-05-07 22:33 | 40.48004 | 2.34938 | 18953 ft | 414 kts | 180° |
| 2026-05-07 22:33 | 40.45122 | 2.35090 | 18656 ft | 414 kts | 180° |
| 2026-05-07 22:33 | 40.42208 | 2.35243 | 18332 ft | 414 kts | 180° |
| 2026-05-07 22:34 | 40.39372 | 2.35391 | 17910 ft | 412 kts | 180° |
| 2026-05-07 22:34 | 40.36478 | 2.35539 | 17475 ft | 410 kts | 180° |
| 2026-05-07 22:34 | 40.33636 | 2.35686 | 17053 ft | 407 kts | 180° |
| 2026-05-07 22:34 | 40.30816 | 2.35829 | 16636 ft | 405 kts | 180° |
| 2026-05-07 22:35 | 40.28008 | 2.35966 | 16225 ft | 403 kts | 180° |
| 2026-05-07 22:35 | 40.25215 | 2.36100 | 15821 ft | 401 kts | 179° |
| 2026-05-07 22:35 | 40.22472 | 2.36233 | 15427 ft | 398 kts | 179° |
| 2026-05-07 22:35 | 40.19704 | 2.36371 | 15027 ft | 389 kts | 179° |
| 2026-05-07 22:36 | 40.17028 | 2.36511 | 14646 ft | 381 kts | 179° |
| 2026-05-07 22:36 | 40.14413 | 2.36647 | 14286 ft | 372 kts | 179° |
| 2026-05-07 22:36 | 40.11848 | 2.36777 | 13927 ft | 365 kts | 179° |
| 2026-05-07 22:36 | 40.09337 | 2.36902 | 13546 ft | 358 kts | 179° |
| 2026-05-07 22:37 | 40.06871 | 2.37025 | 13150 ft | 351 kts | 179° |
| 2026-05-07 22:37 | 40.04480 | 2.37141 | 12788 ft | 345 kts | 179° |
| 2026-05-07 22:37 | 40.02184 | 2.37251 | 12433 ft | 338 kts | 179° |
| 2026-05-07 22:37 | 39.99850 | 2.37368 | 12072 ft | 332 kts | 179° |
| 2026-05-07 22:38 | 39.97558 | 2.37482 | 11718 ft | 328 kts | 179° |
| 2026-05-07 22:38 | 39.95294 | 2.37594 | 11363 ft | 324 kts | 179° |
| 2026-05-07 22:38 | 39.93805 | 2.37670 | 11134 ft | 321 kts | 179° |
| 2026-05-07 22:38 | 39.91883 | 2.37770 | 10835 ft | 317 kts | 178° |
| 2026-05-07 22:39 | 39.89695 | 2.37882 | 10499 ft | 312 kts | 178° |
| 2026-05-07 22:39 | 39.87537 | 2.37987 | 10175 ft | 312 kts | 178° |
| 2026-05-07 22:39 | 39.85382 | 2.38086 | 9859 ft | 307 kts | 178° |
| 2026-05-07 22:39 | 39.83262 | 2.38183 | 9543 ft | 301 kts | 178° |
| 2026-05-07 22:40 | 39.81191 | 2.38283 | 9245 ft | 295 kts | 178° |
| 2026-05-07 22:40 | 39.79163 | 2.38384 | 8961 ft | 289 kts | 177° |
| 2026-05-07 22:40 | 39.77172 | 2.38486 | 8673 ft | 283 kts | 177° |
| 2026-05-07 22:40 | 39.75352 | 2.38579 | 8413 ft | 278 kts | 177° |
| 2026-05-07 22:41 | 39.73567 | 2.38667 | 8152 ft | 273 kts | 177° |
| 2026-05-07 22:41 | 39.71706 | 2.38756 | 7876 ft | 268 kts | 177° |
| 2026-05-07 22:41 | 39.69865 | 2.38846 | 7660 ft | 260 kts | 177° |
| 2026-05-07 22:41 | 39.68095 | 2.38934 | 7532 ft | 252 kts | 177° |
| 2026-05-07 22:42 | 39.66346 | 2.39022 | 7409 ft | 250 kts | 176° |
| 2026-05-07 22:42 | 39.64639 | 2.39107 | 7284 ft | 240 kts | 176° |
| 2026-05-07 22:42 | 39.63000 | 2.39187 | 7159 ft | 234 kts | 176° |
| 2026-05-07 22:42 | 39.61375 | 2.39266 | 7037 ft | 233 kts | 176° |
| 2026-05-07 22:43 | 39.59755 | 2.39346 | 6911 ft | 233 kts | 176° |
| 2026-05-07 22:43 | 39.58135 | 2.39425 | 6728 ft | 233 kts | 176° |
| 2026-05-07 22:43 | 39.56525 | 2.39504 | 6449 ft | 231 kts | 176° |
| 2026-05-07 22:43 | 39.54962 | 2.39883 | 6126 ft | 228 kts | 158° |
| 2026-05-07 22:44 | 39.53582 | 2.40848 | 5818 ft | 224 kts | 141° |
| 2026-05-07 22:44 | 39.52331 | 2.42039 | 5509 ft | 223 kts | 141° |
| 2026-05-07 22:44 | 39.51082 | 2.43212 | 5214 ft | 222 kts | 142° |
| 2026-05-07 22:44 | 39.49835 | 2.44378 | 4961 ft | 218 kts | 142° |
| 2026-05-07 22:45 | 39.48634 | 2.45499 | 4668 ft | 210 kts | 142° |
| 2026-05-07 22:45 | 39.47458 | 2.46595 | 4329 ft | 205 kts | 142° |
| 2026-05-07 22:45 | 39.46334 | 2.47676 | 4054 ft | 197 kts | 135° |
| 2026-05-07 22:45 | 39.45591 | 2.49085 | 3826 ft | 186 kts | 108° |
| 2026-05-07 22:46 | 39.45418 | 2.50698 | 3582 ft | 179 kts | 84° |
| 2026-05-07 22:46 | 39.45761 | 2.52210 | 3361 ft | 174 kts | 62° |
| 2026-05-07 22:46 | 39.46385 | 2.53532 | 3142 ft | 170 kts | 59° |
| 2026-05-07 22:46 | 39.47000 | 2.54823 | 2917 ft | 166 kts | 59° |
| 2026-05-07 22:47 | 39.47592 | 2.56066 | 2716 ft | 156 kts | 60° |
| 2026-05-07 22:47 | 39.48143 | 2.57224 | 2507 ft | 146 kts | 60° |
| 2026-05-07 22:47 | 39.48661 | 2.58313 | 2323 ft | 138 kts | 60° |
| 2026-05-07 22:47 | 39.49155 | 2.59353 | 2138 ft | 134 kts | 60° |
| 2026-05-07 22:48 | 39.49639 | 2.60372 | 1962 ft | 132 kts | 60° |
| 2026-05-07 22:48 | 39.50121 | 2.61385 | 1781 ft | 132 kts | 60° |
| 2026-05-07 22:48 | 39.50603 | 2.62398 | 1598 ft | 133 kts | 60° |
| 2026-05-07 22:48 | 39.51086 | 2.63406 | 1428 ft | 131 kts | 60° |
| 2026-05-07 22:49 | 39.51559 | 2.64418 | 1249 ft | 132 kts | 60° |
| 2026-05-07 22:49 | 39.52041 | 2.65430 | 1072 ft | 132 kts | 59° |
| 2026-05-07 22:49 | 39.52521 | 2.66444 | 870 ft | 132 kts | 58° |
| 2026-05-07 22:49 | 39.53001 | 2.67453 | 722 ft | 132 kts | 57° |
| 2026-05-07 22:50 | 39.53483 | 2.68473 | 531 ft | 133 kts | 58° |
| 2026-05-07 22:50 | 39.53965 | 2.69479 | 375 ft | 131 kts | 58° |
| 2026-05-07 22:50 | 39.54444 | 2.70487 | 194 ft | 131 kts | 59° |
| 2026-05-07 22:50 | 39.54917 | 2.71483 | 65 ft | 129 kts | 59° |
| 2026-05-07 22:51 | 39.55330 | 2.72366 | 38 ft | 77 kts | 58° |
| 2026-05-07 22:51 | 39.55471 | 2.72673 | 38 ft | 29 kts | 63° |
| 2026-05-07 22:51 | 39.55500 | 2.72924 | 38 ft | 27 kts | 89° |
| 2026-05-07 22:51 | 39.55501 | 2.73079 | 38 ft | 13 kts | 89° |
| 2026-05-07 22:52 | 39.55516 | 2.73205 | 37 ft | 15 kts | 66° |
| 2026-05-07 22:52 | 39.55574 | 2.73332 | 38 ft | 18 kts | 57° |
| 2026-05-07 22:52 | 39.55629 | 2.73470 | 37 ft | 16 kts | 93° |
| 2026-05-07 22:52 | 39.55537 | 2.73567 | 38 ft | 19 kts | 148° |
| 2026-05-07 22:53 | 39.55412 | 2.73665 | 38 ft | 23 kts | 149° |
| 2026-05-07 22:53 | 39.55266 | 2.73780 | 38 ft | 26 kts | 148° |
| 2026-05-07 22:53 | 39.55107 | 2.73905 | 38 ft | 26 kts | 148° |
| 2026-05-07 22:53 | 39.55005 | 2.73987 | 38 ft | 26 kts | 148° |
| 2026-05-07 22:54 | 39.54864 | 2.74097 | 38 ft | 23 kts | 148° |
| 2026-05-07 22:54 | 39.54768 | 2.74088 | 38 ft | 15 kts | 245° |
| 2026-05-07 22:54 | 39.54716 | 2.73972 | 38 ft | 15 kts | 238° |
| 2026-05-07 22:54 | 39.54660 | 2.73855 | 38 ft | 15 kts | 238° |
| 2026-05-07 22:55 | 39.54606 | 2.73742 | 38 ft | 14 kts | 238° |
| 2026-05-07 22:55 | 39.54596 | 2.73640 | 37 ft | 12 kts | 312° |
| 2026-05-07 22:55 | 39.54686 | 2.73596 | 38 ft | 10 kts | 328° |
| 2026-05-07 22:55 | 39.54724 | 2.73566 | 38 ft | 9 kts | 328° |
| 2026-05-07 22:56 | 39.54769 | 2.73517 | 38 ft | 8 kts | 300° |
| 2026-05-07 22:56 | 39.54794 | 2.73457 | 38 ft | 7 kts | 326° |
| 2026-05-07 22:56 | 39.54836 | 2.73427 | 38 ft | 5 kts | 333° |
| 2026-05-07 22:56 | 39.54843 | 2.73423 | 38 ft | 0 kts | 333° |